sensor_id;sensor_type;location;lat;lon;timestamp;P1;durP1;ratioP1;P2;durP2;ratioP2
4051;SDS011;2040;50.924;11.604;2023-05-07T00:02:20;30.03;;;15.97;;
4051;SDS011;2040;50.924;11.604;2023-05-07T00:04:46;26.97;;;14.07;;
4051;SDS011;2040;50.924;11.604;2023-05-07T00:07:11;23.67;;;14.37;;
4051;SDS011;2040;50.924;11.604;2023-05-07T00:09:37;25.50;;;14.60;;
4051;SDS011;2040;50.924;11.604;2023-05-07T00:12:02;29.63;;;15.47;;
4051;SDS011;2040;50.924;11.604;2023-05-07T00:14:28;31.57;;;15.90;;
4051;SDS011;2040;50.924;11.604;2023-05-07T00:16:54;32.00;;;14.90;;
4051;SDS011;2040;50.924;11.604;2023-05-07T00:19:20;32.87;;;16.63;;
4051;SDS011;2040;50.924;11.604;2023-05-07T00:21:45;33.37;;;16.30;;
4051;SDS011;2040;50.924;11.604;2023-05-07T00:24:11;29.83;;;16.57;;
4051;SDS011;2040;50.924;11.604;2023-05-07T00:26:37;41.53;;;18.63;;
4051;SDS011;2040;50.924;11.604;2023-05-07T00:29:02;39.03;;;20.30;;
4051;SDS011;2040;50.924;11.604;2023-05-07T00:31:28;44.20;;;20.17;;
4051;SDS011;2040;50.924;11.604;2023-05-07T00:33:53;40.57;;;18.27;;
4051;SDS011;2040;50.924;11.604;2023-05-07T00:36:19;33.30;;;17.00;;
4051;SDS011;2040;50.924;11.604;2023-05-07T00:38:44;35.20;;;17.50;;
4051;SDS011;2040;50.924;11.604;2023-05-07T00:41:10;39.20;;;17.77;;
4051;SDS011;2040;50.924;11.604;2023-05-07T00:43:36;34.10;;;18.10;;
4051;SDS011;2040;50.924;11.604;2023-05-07T00:46:01;37.10;;;18.40;;
4051;SDS011;2040;50.924;11.604;2023-05-07T00:48:27;35.53;;;17.37;;
4051;SDS011;2040;50.924;11.604;2023-05-07T00:50:52;42.20;;;17.80;;
4051;SDS011;2040;50.924;11.604;2023-05-07T00:53:18;40.20;;;17.67;;
4051;SDS011;2040;50.924;11.604;2023-05-07T00:55:44;34.13;;;17.27;;
4051;SDS011;2040;50.924;11.604;2023-05-07T00:58:10;42.73;;;19.53;;
4051;SDS011;2040;50.924;11.604;2023-05-07T01:00:35;39.67;;;17.57;;
4051;SDS011;2040;50.924;11.604;2023-05-07T01:03:01;29.37;;;15.77;;
4051;SDS011;2040;50.924;11.604;2023-05-07T01:05:27;38.70;;;18.67;;
4051;SDS011;2040;50.924;11.604;2023-05-07T01:07:53;37.77;;;17.50;;
4051;SDS011;2040;50.924;11.604;2023-05-07T01:10:20;31.10;;;15.80;;
4051;SDS011;2040;50.924;11.604;2023-05-07T01:12:46;29.90;;;16.37;;
4051;SDS011;2040;50.924;11.604;2023-05-07T01:15:13;41.97;;;16.80;;
4051;SDS011;2040;50.924;11.604;2023-05-07T01:17:40;34.50;;;15.70;;
4051;SDS011;2040;50.924;11.604;2023-05-07T01:20:06;31.20;;;16.00;;
4051;SDS011;2040;50.924;11.604;2023-05-07T01:22:36;36.53;;;18.07;;
4051;SDS011;2040;50.924;11.604;2023-05-07T01:25:04;30.77;;;15.60;;
4051;SDS011;2040;50.924;11.604;2023-05-07T01:27:30;33.33;;;15.57;;
4051;SDS011;2040;50.924;11.604;2023-05-07T01:29:58;33.67;;;17.27;;
4051;SDS011;2040;50.924;11.604;2023-05-07T01:33:08;33.37;;;15.77;;
4051;SDS011;2040;50.924;11.604;2023-05-07T01:35:24;30.37;;;15.30;;
4051;SDS011;2040;50.924;11.604;2023-05-07T01:37:52;35.80;;;15.00;;
4051;SDS011;2040;50.924;11.604;2023-05-07T01:40:19;28.07;;;14.33;;
4051;SDS011;2040;50.924;11.604;2023-05-07T01:42:45;27.33;;;16.40;;
4051;SDS011;2040;50.924;11.604;2023-05-07T01:45:13;32.17;;;16.53;;
4051;SDS011;2040;50.924;11.604;2023-05-07T01:47:38;26.40;;;14.40;;
4051;SDS011;2040;50.924;11.604;2023-05-07T01:50:08;33.43;;;15.60;;
4051;SDS011;2040;50.924;11.604;2023-05-07T01:52:35;33.20;;;15.70;;
4051;SDS011;2040;50.924;11.604;2023-05-07T01:55:02;28.27;;;15.70;;
4051;SDS011;2040;50.924;11.604;2023-05-07T01:57:28;29.47;;;14.80;;
4051;SDS011;2040;50.924;11.604;2023-05-07T01:59:53;27.50;;;13.97;;
4051;SDS011;2040;50.924;11.604;2023-05-07T02:02:19;26.47;;;12.67;;
4051;SDS011;2040;50.924;11.604;2023-05-07T02:04:45;27.37;;;13.40;;
4051;SDS011;2040;50.924;11.604;2023-05-07T02:07:10;30.37;;;14.73;;
4051;SDS011;2040;50.924;11.604;2023-05-07T02:09:36;23.67;;;12.50;;
4051;SDS011;2040;50.924;11.604;2023-05-07T02:12:01;28.23;;;15.50;;
4051;SDS011;2040;50.924;11.604;2023-05-07T02:14:27;25.33;;;12.00;;
4051;SDS011;2040;50.924;11.604;2023-05-07T02:16:53;25.67;;;12.27;;
4051;SDS011;2040;50.924;11.604;2023-05-07T02:19:18;24.20;;;13.57;;
4051;SDS011;2040;50.924;11.604;2023-05-07T02:21:46;20.07;;;12.43;;
4051;SDS011;2040;50.924;11.604;2023-05-07T02:24:12;21.03;;;11.30;;
4051;SDS011;2040;50.924;11.604;2023-05-07T02:26:37;25.80;;;13.00;;
4051;SDS011;2040;50.924;11.604;2023-05-07T02:29:04;22.37;;;10.40;;
4051;SDS011;2040;50.924;11.604;2023-05-07T02:31:29;18.70;;;10.83;;
4051;SDS011;2040;50.924;11.604;2023-05-07T02:33:55;27.13;;;11.40;;
4051;SDS011;2040;50.924;11.604;2023-05-07T02:36:20;26.20;;;11.93;;
4051;SDS011;2040;50.924;11.604;2023-05-07T02:38:46;21.10;;;11.50;;
4051;SDS011;2040;50.924;11.604;2023-05-07T02:41:11;25.20;;;11.20;;
4051;SDS011;2040;50.924;11.604;2023-05-07T02:43:37;24.50;;;12.10;;
4051;SDS011;2040;50.924;11.604;2023-05-07T02:46:03;23.50;;;11.47;;
4051;SDS011;2040;50.924;11.604;2023-05-07T02:48:29;21.37;;;11.00;;
4051;SDS011;2040;50.924;11.604;2023-05-07T02:50:55;22.67;;;12.77;;
4051;SDS011;2040;50.924;11.604;2023-05-07T02:53:21;27.63;;;11.83;;
4051;SDS011;2040;50.924;11.604;2023-05-07T02:55:47;20.30;;;10.10;;
4051;SDS011;2040;50.924;11.604;2023-05-07T02:58:12;24.10;;;10.97;;
4051;SDS011;2040;50.924;11.604;2023-05-07T03:00:38;20.53;;;10.23;;
4051;SDS011;2040;50.924;11.604;2023-05-07T03:03:03;21.70;;;10.00;;
4051;SDS011;2040;50.924;11.604;2023-05-07T03:05:29;14.87;;;8.03;;
4051;SDS011;2040;50.924;11.604;2023-05-07T03:07:55;15.40;;;8.30;;
4051;SDS011;2040;50.924;11.604;2023-05-07T03:10:20;13.57;;;8.17;;
4051;SDS011;2040;50.924;11.604;2023-05-07T03:12:46;15.40;;;8.47;;
4051;SDS011;2040;50.924;11.604;2023-05-07T03:15:11;17.77;;;8.43;;
4051;SDS011;2040;50.924;11.604;2023-05-07T03:17:37;16.57;;;8.30;;
4051;SDS011;2040;50.924;11.604;2023-05-07T03:20:03;13.70;;;7.13;;
4051;SDS011;2040;50.924;11.604;2023-05-07T03:22:29;15.73;;;8.10;;
4051;SDS011;2040;50.924;11.604;2023-05-07T03:24:55;14.50;;;7.87;;
4051;SDS011;2040;50.924;11.604;2023-05-07T03:27:20;12.63;;;7.00;;
4051;SDS011;2040;50.924;11.604;2023-05-07T03:29:46;17.20;;;8.10;;
4051;SDS011;2040;50.924;11.604;2023-05-07T03:32:11;17.27;;;8.17;;
4051;SDS011;2040;50.924;11.604;2023-05-07T03:34:37;13.80;;;7.63;;
4051;SDS011;2040;50.924;11.604;2023-05-07T03:37:02;15.13;;;7.50;;
4051;SDS011;2040;50.924;11.604;2023-05-07T03:39:28;18.67;;;8.40;;
4051;SDS011;2040;50.924;11.604;2023-05-07T03:41:53;12.70;;;7.33;;
4051;SDS011;2040;50.924;11.604;2023-05-07T03:44:19;14.90;;;7.60;;
4051;SDS011;2040;50.924;11.604;2023-05-07T03:46:45;10.27;;;6.53;;
4051;SDS011;2040;50.924;11.604;2023-05-07T03:49:10;12.27;;;8.00;;
4051;SDS011;2040;50.924;11.604;2023-05-07T03:51:36;16.50;;;7.23;;
4051;SDS011;2040;50.924;11.604;2023-05-07T03:54:01;15.00;;;7.87;;
4051;SDS011;2040;50.924;11.604;2023-05-07T03:56:27;16.23;;;8.30;;
4051;SDS011;2040;50.924;11.604;2023-05-07T03:58:53;14.33;;;8.20;;
4051;SDS011;2040;50.924;11.604;2023-05-07T04:01:19;13.90;;;8.63;;
4051;SDS011;2040;50.924;11.604;2023-05-07T04:03:44;14.90;;;7.97;;
4051;SDS011;2040;50.924;11.604;2023-05-07T04:06:10;18.03;;;8.20;;
4051;SDS011;2040;50.924;11.604;2023-05-07T04:08:36;19.63;;;9.33;;
4051;SDS011;2040;50.924;11.604;2023-05-07T04:11:01;16.03;;;9.33;;
4051;SDS011;2040;50.924;11.604;2023-05-07T04:13:27;14.70;;;8.87;;
4051;SDS011;2040;50.924;11.604;2023-05-07T04:15:55;19.13;;;10.07;;
4051;SDS011;2040;50.924;11.604;2023-05-07T04:18:21;23.90;;;11.53;;
4051;SDS011;2040;50.924;11.604;2023-05-07T04:20:47;26.50;;;12.00;;
4051;SDS011;2040;50.924;11.604;2023-05-07T04:23:14;17.87;;;10.27;;
4051;SDS011;2040;50.924;11.604;2023-05-07T04:25:39;22.53;;;11.10;;
4051;SDS011;2040;50.924;11.604;2023-05-07T04:28:05;21.23;;;11.00;;
4051;SDS011;2040;50.924;11.604;2023-05-07T04:30:31;25.23;;;12.13;;
4051;SDS011;2040;50.924;11.604;2023-05-07T04:32:56;29.73;;;12.43;;
4051;SDS011;2040;50.924;11.604;2023-05-07T04:35:22;24.77;;;13.73;;
4051;SDS011;2040;50.924;11.604;2023-05-07T04:37:48;25.40;;;12.80;;
4051;SDS011;2040;50.924;11.604;2023-05-07T04:40:13;25.03;;;11.93;;
4051;SDS011;2040;50.924;11.604;2023-05-07T04:42:39;27.57;;;12.63;;
4051;SDS011;2040;50.924;11.604;2023-05-07T04:45:05;22.43;;;11.30;;
4051;SDS011;2040;50.924;11.604;2023-05-07T04:47:31;27.77;;;12.53;;
4051;SDS011;2040;50.924;11.604;2023-05-07T04:50:00;29.13;;;12.20;;
4051;SDS011;2040;50.924;11.604;2023-05-07T04:52:25;25.53;;;12.10;;
4051;SDS011;2040;50.924;11.604;2023-05-07T04:54:51;25.67;;;11.00;;
4051;SDS011;2040;50.924;11.604;2023-05-07T04:57:17;27.10;;;11.60;;
4051;SDS011;2040;50.924;11.604;2023-05-07T04:59:43;33.80;;;12.10;;
4051;SDS011;2040;50.924;11.604;2023-05-07T05:02:09;28.73;;;10.80;;
4051;SDS011;2040;50.924;11.604;2023-05-07T05:04:35;18.30;;;9.73;;
4051;SDS011;2040;50.924;11.604;2023-05-07T05:07:02;20.43;;;9.53;;
4051;SDS011;2040;50.924;11.604;2023-05-07T05:09:29;19.77;;;9.83;;
4051;SDS011;2040;50.924;11.604;2023-05-07T05:11:55;20.47;;;9.53;;
4051;SDS011;2040;50.924;11.604;2023-05-07T05:14:20;23.07;;;10.33;;
4051;SDS011;2040;50.924;11.604;2023-05-07T05:16:46;20.70;;;8.87;;
4051;SDS011;2040;50.924;11.604;2023-05-07T05:19:11;20.23;;;10.63;;
4051;SDS011;2040;50.924;11.604;2023-05-07T05:21:37;23.13;;;11.53;;
4051;SDS011;2040;50.924;11.604;2023-05-07T05:24:04;21.67;;;10.00;;
4051;SDS011;2040;50.924;11.604;2023-05-07T05:26:29;19.83;;;9.37;;
4051;SDS011;2040;50.924;11.604;2023-05-07T05:28:55;17.67;;;8.37;;
4051;SDS011;2040;50.924;11.604;2023-05-07T05:31:20;14.67;;;7.63;;
4051;SDS011;2040;50.924;11.604;2023-05-07T05:33:46;15.33;;;8.23;;
4051;SDS011;2040;50.924;11.604;2023-05-07T05:36:12;16.73;;;7.70;;
4051;SDS011;2040;50.924;11.604;2023-05-07T05:38:38;17.60;;;8.30;;
4051;SDS011;2040;50.924;11.604;2023-05-07T05:41:04;15.50;;;7.97;;
4051;SDS011;2040;50.924;11.604;2023-05-07T05:43:30;15.70;;;7.30;;
4051;SDS011;2040;50.924;11.604;2023-05-07T05:45:56;17.97;;;8.27;;
4051;SDS011;2040;50.924;11.604;2023-05-07T05:48:22;18.10;;;8.23;;
4051;SDS011;2040;50.924;11.604;2023-05-07T05:50:47;15.30;;;7.50;;
4051;SDS011;2040;50.924;11.604;2023-05-07T05:53:13;17.30;;;7.93;;
4051;SDS011;2040;50.924;11.604;2023-05-07T05:55:39;16.73;;;7.77;;
4051;SDS011;2040;50.924;11.604;2023-05-07T05:58:04;12.90;;;7.33;;
4051;SDS011;2040;50.924;11.604;2023-05-07T06:00:31;13.37;;;7.50;;
4051;SDS011;2040;50.924;11.604;2023-05-07T06:02:57;14.13;;;6.80;;
4051;SDS011;2040;50.924;11.604;2023-05-07T06:05:23;11.40;;;6.57;;
4051;SDS011;2040;50.924;11.604;2023-05-07T06:07:48;17.67;;;7.40;;
4051;SDS011;2040;50.924;11.604;2023-05-07T06:10:14;16.33;;;8.27;;
4051;SDS011;2040;50.924;11.604;2023-05-07T06:12:40;13.20;;;6.80;;
4051;SDS011;2040;50.924;11.604;2023-05-07T06:15:05;15.13;;;8.20;;
4051;SDS011;2040;50.924;11.604;2023-05-07T06:17:31;12.20;;;7.50;;
4051;SDS011;2040;50.924;11.604;2023-05-07T06:19:57;13.20;;;7.20;;
4051;SDS011;2040;50.924;11.604;2023-05-07T06:22:22;18.50;;;7.47;;
4051;SDS011;2040;50.924;11.604;2023-05-07T06:24:48;13.70;;;7.90;;
4051;SDS011;2040;50.924;11.604;2023-05-07T06:27:13;12.20;;;7.07;;
4051;SDS011;2040;50.924;11.604;2023-05-07T06:29:39;15.30;;;6.90;;
4051;SDS011;2040;50.924;11.604;2023-05-07T06:34:33;13.80;;;7.57;;
4051;SDS011;2040;50.924;11.604;2023-05-07T06:36:59;14.57;;;6.73;;
4051;SDS011;2040;50.924;11.604;2023-05-07T06:39:24;15.53;;;7.60;;
4051;SDS011;2040;50.924;11.604;2023-05-07T06:41:50;12.83;;;7.30;;
4051;SDS011;2040;50.924;11.604;2023-05-07T06:44:15;13.83;;;7.00;;
4051;SDS011;2040;50.924;11.604;2023-05-07T06:46:41;16.20;;;7.73;;
4051;SDS011;2040;50.924;11.604;2023-05-07T06:49:07;19.23;;;7.77;;
4051;SDS011;2040;50.924;11.604;2023-05-07T06:51:32;13.23;;;7.60;;
4051;SDS011;2040;50.924;11.604;2023-05-07T06:53:58;12.27;;;6.87;;
4051;SDS011;2040;50.924;11.604;2023-05-07T06:56:23;14.77;;;6.57;;
4051;SDS011;2040;50.924;11.604;2023-05-07T06:58:49;14.53;;;6.77;;
4051;SDS011;2040;50.924;11.604;2023-05-07T07:01:15;12.73;;;6.97;;
4051;SDS011;2040;50.924;11.604;2023-05-07T07:03:41;15.80;;;8.07;;
4051;SDS011;2040;50.924;11.604;2023-05-07T07:06:06;14.00;;;7.50;;
4051;SDS011;2040;50.924;11.604;2023-05-07T07:08:32;13.67;;;8.10;;
4051;SDS011;2040;50.924;11.604;2023-05-07T07:10:58;13.17;;;7.50;;
4051;SDS011;2040;50.924;11.604;2023-05-07T07:13:23;16.13;;;8.33;;
4051;SDS011;2040;50.924;11.604;2023-05-07T07:15:49;14.07;;;7.67;;
4051;SDS011;2040;50.924;11.604;2023-05-07T07:18:14;14.80;;;8.10;;
4051;SDS011;2040;50.924;11.604;2023-05-07T07:20:40;17.80;;;8.40;;
4051;SDS011;2040;50.924;11.604;2023-05-07T07:23:06;18.83;;;9.70;;
4051;SDS011;2040;50.924;11.604;2023-05-07T07:25:31;16.47;;;8.43;;
4051;SDS011;2040;50.924;11.604;2023-05-07T07:27:57;15.87;;;8.87;;
4051;SDS011;2040;50.924;11.604;2023-05-07T07:30:23;16.40;;;8.80;;
4051;SDS011;2040;50.924;11.604;2023-05-07T07:32:48;17.10;;;10.10;;
4051;SDS011;2040;50.924;11.604;2023-05-07T07:35:14;19.13;;;8.93;;
4051;SDS011;2040;50.924;11.604;2023-05-07T07:37:39;18.77;;;9.80;;
4051;SDS011;2040;50.924;11.604;2023-05-07T07:40:05;17.50;;;9.10;;
4051;SDS011;2040;50.924;11.604;2023-05-07T07:42:31;18.70;;;9.73;;
4051;SDS011;2040;50.924;11.604;2023-05-07T07:44:57;18.77;;;9.93;;
4051;SDS011;2040;50.924;11.604;2023-05-07T07:47:22;18.53;;;9.00;;
4051;SDS011;2040;50.924;11.604;2023-05-07T07:49:48;16.40;;;9.10;;
4051;SDS011;2040;50.924;11.604;2023-05-07T07:52:14;16.80;;;9.80;;
4051;SDS011;2040;50.924;11.604;2023-05-07T07:54:39;19.23;;;9.50;;
4051;SDS011;2040;50.924;11.604;2023-05-07T07:57:05;13.83;;;7.80;;
4051;SDS011;2040;50.924;11.604;2023-05-07T07:59:30;20.00;;;10.20;;
4051;SDS011;2040;50.924;11.604;2023-05-07T08:01:56;20.77;;;9.63;;
4051;SDS011;2040;50.924;11.604;2023-05-07T08:04:22;16.50;;;9.43;;
4051;SDS011;2040;50.924;11.604;2023-05-07T08:06:48;16.10;;;8.33;;
4051;SDS011;2040;50.924;11.604;2023-05-07T08:09:13;20.90;;;11.07;;
4051;SDS011;2040;50.924;11.604;2023-05-07T08:11:39;19.03;;;10.40;;
4051;SDS011;2040;50.924;11.604;2023-05-07T08:14:05;19.27;;;9.17;;
4051;SDS011;2040;50.924;11.604;2023-05-07T08:16:30;20.67;;;10.53;;
4051;SDS011;2040;50.924;11.604;2023-05-07T08:18:56;16.87;;;9.93;;
4051;SDS011;2040;50.924;11.604;2023-05-07T08:21:22;18.00;;;10.83;;
4051;SDS011;2040;50.924;11.604;2023-05-07T08:23:48;18.93;;;10.53;;
4051;SDS011;2040;50.924;11.604;2023-05-07T08:26:14;17.77;;;10.37;;
4051;SDS011;2040;50.924;11.604;2023-05-07T08:28:39;18.40;;;9.37;;
4051;SDS011;2040;50.924;11.604;2023-05-07T08:31:05;15.23;;;8.67;;
4051;SDS011;2040;50.924;11.604;2023-05-07T08:33:31;18.80;;;9.00;;
4051;SDS011;2040;50.924;11.604;2023-05-07T08:35:56;19.33;;;9.00;;
4051;SDS011;2040;50.924;11.604;2023-05-07T08:38:22;23.03;;;11.30;;
4051;SDS011;2040;50.924;11.604;2023-05-07T08:40:47;15.53;;;9.80;;
4051;SDS011;2040;50.924;11.604;2023-05-07T08:43:13;17.87;;;9.43;;
4051;SDS011;2040;50.924;11.604;2023-05-07T08:45:40;19.90;;;9.60;;
4051;SDS011;2040;50.924;11.604;2023-05-07T08:48:14;18.50;;;10.17;;
4051;SDS011;2040;50.924;11.604;2023-05-07T08:50:40;17.50;;;8.97;;
4051;SDS011;2040;50.924;11.604;2023-05-07T08:53:06;18.17;;;8.57;;
4051;SDS011;2040;50.924;11.604;2023-05-07T08:55:31;17.13;;;8.60;;
4051;SDS011;2040;50.924;11.604;2023-05-07T08:57:58;15.40;;;8.63;;
4051;SDS011;2040;50.924;11.604;2023-05-07T09:00:24;18.10;;;9.87;;
4051;SDS011;2040;50.924;11.604;2023-05-07T09:02:50;14.73;;;8.50;;
4051;SDS011;2040;50.924;11.604;2023-05-07T09:05:17;14.33;;;7.70;;
4051;SDS011;2040;50.924;11.604;2023-05-07T09:07:43;14.17;;;8.50;;
4051;SDS011;2040;50.924;11.604;2023-05-07T09:10:09;16.30;;;8.07;;
4051;SDS011;2040;50.924;11.604;2023-05-07T09:12:35;17.37;;;8.17;;
4051;SDS011;2040;50.924;11.604;2023-05-07T09:15:01;13.73;;;8.13;;
4051;SDS011;2040;50.924;11.604;2023-05-07T09:17:27;12.27;;;7.53;;
4051;SDS011;2040;50.924;11.604;2023-05-07T09:19:53;12.40;;;7.33;;
4051;SDS011;2040;50.924;11.604;2023-05-07T09:22:19;12.63;;;7.47;;
4051;SDS011;2040;50.924;11.604;2023-05-07T09:24:48;13.10;;;7.90;;
4051;SDS011;2040;50.924;11.604;2023-05-07T09:27:16;15.07;;;8.00;;
4051;SDS011;2040;50.924;11.604;2023-05-07T09:29:43;17.00;;;7.80;;
4051;SDS011;2040;50.924;11.604;2023-05-07T09:32:09;18.40;;;9.47;;
4051;SDS011;2040;50.924;11.604;2023-05-07T09:34:35;17.47;;;8.00;;
4051;SDS011;2040;50.924;11.604;2023-05-07T09:37:04;12.47;;;7.73;;
4051;SDS011;2040;50.924;11.604;2023-05-07T09:42:12;14.20;;;8.80;;
4051;SDS011;2040;50.924;11.604;2023-05-07T09:44:39;17.40;;;8.70;;
4051;SDS011;2040;50.924;11.604;2023-05-07T09:47:05;11.20;;;7.73;;
4051;SDS011;2040;50.924;11.604;2023-05-07T09:49:33;14.50;;;7.90;;
4051;SDS011;2040;50.924;11.604;2023-05-07T09:52:01;14.73;;;8.60;;
4051;SDS011;2040;50.924;11.604;2023-05-07T09:54:28;15.07;;;7.93;;
4051;SDS011;2040;50.924;11.604;2023-05-07T09:56:54;16.73;;;8.30;;
4051;SDS011;2040;50.924;11.604;2023-05-07T09:59:21;15.77;;;7.93;;
4051;SDS011;2040;50.924;11.604;2023-05-07T10:01:48;14.50;;;7.50;;
4051;SDS011;2040;50.924;11.604;2023-05-07T10:04:14;13.40;;;7.60;;
4051;SDS011;2040;50.924;11.604;2023-05-07T10:06:40;14.27;;;6.77;;
4051;SDS011;2040;50.924;11.604;2023-05-07T10:09:06;14.40;;;7.03;;
4051;SDS011;2040;50.924;11.604;2023-05-07T10:11:32;12.77;;;7.70;;
4051;SDS011;2040;50.924;11.604;2023-05-07T10:13:59;12.47;;;7.33;;
4051;SDS011;2040;50.924;11.604;2023-05-07T10:16:27;14.17;;;7.17;;
4051;SDS011;2040;50.924;11.604;2023-05-07T10:19:05;12.83;;;7.60;;
4051;SDS011;2040;50.924;11.604;2023-05-07T10:21:36;16.43;;;8.23;;
4051;SDS011;2040;50.924;11.604;2023-05-07T10:24:06;17.40;;;8.43;;
4051;SDS011;2040;50.924;11.604;2023-05-07T10:26:39;17.70;;;8.60;;
4051;SDS011;2040;50.924;11.604;2023-05-07T10:29:12;14.27;;;7.60;;
4051;SDS011;2040;50.924;11.604;2023-05-07T10:34:34;19.57;;;9.47;;
4051;SDS011;2040;50.924;11.604;2023-05-07T10:37:03;12.20;;;7.10;;
4051;SDS011;2040;50.924;11.604;2023-05-07T10:39:30;13.53;;;7.40;;
4051;SDS011;2040;50.924;11.604;2023-05-07T10:41:56;13.97;;;7.47;;
4051;SDS011;2040;50.924;11.604;2023-05-07T10:44:25;13.60;;;7.60;;
4051;SDS011;2040;50.924;11.604;2023-05-07T10:49:30;16.73;;;7.87;;
4051;SDS011;2040;50.924;11.604;2023-05-07T10:54:39;16.27;;;7.47;;
4051;SDS011;2040;50.924;11.604;2023-05-07T10:59:55;14.53;;;7.57;;
4051;SDS011;2040;50.924;11.604;2023-05-07T11:02:21;17.90;;;7.50;;
4051;SDS011;2040;50.924;11.604;2023-05-07T11:05:18;13.47;;;7.33;;
4051;SDS011;2040;50.924;11.604;2023-05-07T11:07:57;11.47;;;6.80;;
4051;SDS011;2040;50.924;11.604;2023-05-07T11:13:15;14.70;;;8.40;;
4051;SDS011;2040;50.924;11.604;2023-05-07T11:15:42;11.30;;;6.70;;
4051;SDS011;2040;50.924;11.604;2023-05-07T11:18:10;11.37;;;6.83;;
4051;SDS011;2040;50.924;11.604;2023-05-07T11:20:44;13.80;;;6.60;;
4051;SDS011;2040;50.924;11.604;2023-05-07T11:26:07;12.20;;;7.10;;
4051;SDS011;2040;50.924;11.604;2023-05-07T11:28:38;11.33;;;6.83;;
4051;SDS011;2040;50.924;11.604;2023-05-07T11:31:07;11.10;;;6.70;;
4051;SDS011;2040;50.924;11.604;2023-05-07T11:33:34;11.13;;;6.90;;
4051;SDS011;2040;50.924;11.604;2023-05-07T11:36:01;11.37;;;6.73;;
4051;SDS011;2040;50.924;11.604;2023-05-07T11:38:28;10.97;;;6.80;;
4051;SDS011;2040;50.924;11.604;2023-05-07T11:40:56;11.47;;;7.07;;
4051;SDS011;2040;50.924;11.604;2023-05-07T11:43:23;10.50;;;6.70;;
4051;SDS011;2040;50.924;11.604;2023-05-07T11:45:49;12.97;;;6.70;;
4051;SDS011;2040;50.924;11.604;2023-05-07T11:48:15;10.90;;;6.63;;
4051;SDS011;2040;50.924;11.604;2023-05-07T11:50:51;11.13;;;7.20;;
4051;SDS011;2040;50.924;11.604;2023-05-07T11:53:20;13.33;;;6.83;;
4051;SDS011;2040;50.924;11.604;2023-05-07T11:55:56;9.87;;;6.43;;
4051;SDS011;2040;50.924;11.604;2023-05-07T11:58:23;11.30;;;6.73;;
4051;SDS011;2040;50.924;11.604;2023-05-07T12:00:49;9.40;;;6.47;;
4051;SDS011;2040;50.924;11.604;2023-05-07T12:03:16;9.30;;;6.30;;
4051;SDS011;2040;50.924;11.604;2023-05-07T12:05:42;9.20;;;5.77;;
4051;SDS011;2040;50.924;11.604;2023-05-07T12:08:10;8.17;;;5.63;;
4051;SDS011;2040;50.924;11.604;2023-05-07T12:10:42;7.27;;;5.30;;
4051;SDS011;2040;50.924;11.604;2023-05-07T12:13:16;11.53;;;6.57;;
4051;SDS011;2040;50.924;11.604;2023-05-07T12:15:53;10.17;;;6.53;;
4051;SDS011;2040;50.924;11.604;2023-05-07T12:18:20;7.30;;;5.73;;
4051;SDS011;2040;50.924;11.604;2023-05-07T12:20:48;7.17;;;4.87;;
4051;SDS011;2040;50.924;11.604;2023-05-07T12:23:15;8.63;;;5.57;;
4051;SDS011;2040;50.924;11.604;2023-05-07T12:25:41;11.23;;;6.70;;
4051;SDS011;2040;50.924;11.604;2023-05-07T12:28:15;9.77;;;6.20;;
4051;SDS011;2040;50.924;11.604;2023-05-07T12:30:42;9.33;;;6.80;;
4051;SDS011;2040;50.924;11.604;2023-05-07T12:33:12;10.97;;;6.30;;
4051;SDS011;2040;50.924;11.604;2023-05-07T12:35:48;9.30;;;5.93;;
4051;SDS011;2040;50.924;11.604;2023-05-07T12:38:14;9.60;;;6.03;;
4051;SDS011;2040;50.924;11.604;2023-05-07T12:40:45;6.20;;;4.90;;
4051;SDS011;2040;50.924;11.604;2023-05-07T12:43:19;6.00;;;4.43;;
4051;SDS011;2040;50.924;11.604;2023-05-07T12:45:49;8.47;;;5.63;;
4051;SDS011;2040;50.924;11.604;2023-05-07T12:48:16;11.70;;;6.53;;
4051;SDS011;2040;50.924;11.604;2023-05-07T12:50:42;13.00;;;5.73;;
4051;SDS011;2040;50.924;11.604;2023-05-07T12:53:10;8.90;;;5.70;;
4051;SDS011;2040;50.924;11.604;2023-05-07T12:55:47;8.53;;;5.37;;
4051;SDS011;2040;50.924;11.604;2023-05-07T12:58:15;8.90;;;5.53;;
4051;SDS011;2040;50.924;11.604;2023-05-07T13:00:47;6.50;;;4.97;;
4051;SDS011;2040;50.924;11.604;2023-05-07T13:03:20;11.00;;;5.93;;
4051;SDS011;2040;50.924;11.604;2023-05-07T13:05:47;10.90;;;5.63;;
4051;SDS011;2040;50.924;11.604;2023-05-07T13:08:12;7.70;;;4.97;;
4051;SDS011;2040;50.924;11.604;2023-05-07T13:10:52;7.93;;;4.80;;
4051;SDS011;2040;50.924;11.604;2023-05-07T13:13:18;9.20;;;4.90;;
4051;SDS011;2040;50.924;11.604;2023-05-07T13:15:45;7.50;;;5.47;;
4051;SDS011;2040;50.924;11.604;2023-05-07T13:18:10;8.77;;;5.77;;
4051;SDS011;2040;50.924;11.604;2023-05-07T13:20:36;7.13;;;5.10;;
4051;SDS011;2040;50.924;11.604;2023-05-07T13:23:02;8.23;;;5.90;;
4051;SDS011;2040;50.924;11.604;2023-05-07T13:25:29;9.50;;;6.07;;
4051;SDS011;2040;50.924;11.604;2023-05-07T13:27:56;6.03;;;4.70;;
4051;SDS011;2040;50.924;11.604;2023-05-07T13:30:22;10.93;;;5.07;;
4051;SDS011;2040;50.924;11.604;2023-05-07T13:32:48;9.13;;;5.00;;
4051;SDS011;2040;50.924;11.604;2023-05-07T13:35:15;7.10;;;4.47;;
4051;SDS011;2040;50.924;11.604;2023-05-07T13:37:40;7.63;;;4.67;;
4051;SDS011;2040;50.924;11.604;2023-05-07T13:40:06;6.33;;;3.70;;
4051;SDS011;2040;50.924;11.604;2023-05-07T13:42:32;6.27;;;4.43;;
4051;SDS011;2040;50.924;11.604;2023-05-07T13:44:58;5.47;;;4.20;;
4051;SDS011;2040;50.924;11.604;2023-05-07T13:47:23;7.73;;;3.93;;
4051;SDS011;2040;50.924;11.604;2023-05-07T13:49:49;6.67;;;4.50;;
4051;SDS011;2040;50.924;11.604;2023-05-07T13:52:15;8.90;;;4.80;;
4051;SDS011;2040;50.924;11.604;2023-05-07T13:54:41;7.50;;;4.90;;
4051;SDS011;2040;50.924;11.604;2023-05-07T13:57:07;6.40;;;4.83;;
4051;SDS011;2040;50.924;11.604;2023-05-07T13:59:33;6.73;;;4.17;;
4051;SDS011;2040;50.924;11.604;2023-05-07T14:01:58;5.10;;;4.27;;
4051;SDS011;2040;50.924;11.604;2023-05-07T14:04:24;5.23;;;4.40;;
4051;SDS011;2040;50.924;11.604;2023-05-07T14:06:50;5.70;;;4.50;;
4051;SDS011;2040;50.924;11.604;2023-05-07T14:09:16;6.33;;;4.47;;
4051;SDS011;2040;50.924;11.604;2023-05-07T14:11:42;4.63;;;3.73;;
4051;SDS011;2040;50.924;11.604;2023-05-07T14:14:07;6.73;;;4.20;;
4051;SDS011;2040;50.924;11.604;2023-05-07T14:16:35;6.23;;;3.97;;
4051;SDS011;2040;50.924;11.604;2023-05-07T14:19:01;4.47;;;3.20;;
4051;SDS011;2040;50.924;11.604;2023-05-07T14:21:27;4.00;;;3.33;;
4051;SDS011;2040;50.924;11.604;2023-05-07T14:23:52;7.20;;;3.73;;
4051;SDS011;2040;50.924;11.604;2023-05-07T14:26:18;4.47;;;3.87;;
4051;SDS011;2040;50.924;11.604;2023-05-07T14:28:44;5.00;;;3.67;;
4051;SDS011;2040;50.924;11.604;2023-05-07T14:31:11;3.77;;;3.13;;
4051;SDS011;2040;50.924;11.604;2023-05-07T14:33:37;6.00;;;3.23;;
4051;SDS011;2040;50.924;11.604;2023-05-07T14:36:03;4.20;;;3.67;;
4051;SDS011;2040;50.924;11.604;2023-05-07T14:38:29;5.37;;;3.67;;
4051;SDS011;2040;50.924;11.604;2023-05-07T14:40:55;5.67;;;3.70;;
4051;SDS011;2040;50.924;11.604;2023-05-07T14:43:21;4.13;;;3.00;;
4051;SDS011;2040;50.924;11.604;2023-05-07T14:45:47;6.37;;;3.67;;
4051;SDS011;2040;50.924;11.604;2023-05-07T14:48:12;4.00;;;3.37;;
4051;SDS011;2040;50.924;11.604;2023-05-07T14:50:40;8.97;;;3.47;;
4051;SDS011;2040;50.924;11.604;2023-05-07T14:53:06;3.30;;;3.00;;
4051;SDS011;2040;50.924;11.604;2023-05-07T14:55:33;5.47;;;2.80;;
4051;SDS011;2040;50.924;11.604;2023-05-07T14:57:59;3.50;;;3.20;;
4051;SDS011;2040;50.924;11.604;2023-05-07T15:00:25;4.60;;;3.90;;
4051;SDS011;2040;50.924;11.604;2023-05-07T15:02:51;5.40;;;3.93;;
4051;SDS011;2040;50.924;11.604;2023-05-07T15:05:17;4.83;;;3.80;;